createdAt,value
2023-05-03T00:01:44.042Z,2.00
2023-05-03T00:07:46.725Z,1.80
2023-05-03T00:13:48.511Z,1.85
2023-05-03T00:19:50.367Z,2.50
2023-05-03T00:25:56.601Z,1.77
2023-05-03T00:31:59.978Z,2.25
2023-05-03T00:38:01.782Z,1.45
2023-05-03T00:44:03.615Z,1.92
2023-05-03T00:50:07.756Z,1.77
2023-05-03T00:56:10.161Z,1.60
2023-05-03T01:02:11.943Z,1.70
2023-05-03T01:08:43.733Z,1.70
2023-05-03T01:15:11.655Z,1.50
2023-05-03T01:21:15.089Z,1.60
2023-05-03T01:27:16.922Z,1.80
2023-05-03T01:33:30.966Z,1.85
2023-05-03T01:39:40.871Z,1.70
2023-05-03T01:45:43.447Z,1.80
2023-05-03T01:51:45.199Z,1.70
2023-05-03T01:57:46.932Z,1.73
2023-05-03T02:03:48.641Z,2.15
2023-05-03T02:09:50.442Z,2.00
2023-05-03T02:15:52.213Z,1.60
2023-05-03T02:21:54.164Z,1.92
2023-05-03T02:27:56.095Z,1.50
2023-05-03T02:33:57.850Z,1.55
2023-05-03T02:39:59.622Z,2.05
2023-05-03T02:46:01.467Z,2.58
2023-05-03T02:52:03.518Z,2.10
2023-05-03T02:58:05.321Z,1.80
2023-05-03T03:04:07.334Z,2.28
2023-05-03T03:10:09.879Z,2.10
2023-05-03T03:16:13.539Z,2.38
2023-05-03T03:22:15.351Z,2.30
2023-05-03T03:28:17.090Z,2.10
2023-05-03T03:34:18.801Z,2.10
2023-05-03T03:40:20.774Z,1.85
2023-05-03T03:46:22.559Z,2.38
2023-05-03T03:52:24.354Z,2.58
2023-05-03T03:58:26.255Z,2.10
2023-05-03T04:04:28.201Z,2.63
2023-05-03T04:10:30.119Z,2.30
2023-05-03T04:16:31.987Z,2.42
2023-05-03T04:22:34.152Z,2.17
2023-05-03T04:28:35.904Z,2.15
2023-05-03T04:34:37.780Z,2.20
2023-05-03T04:40:39.557Z,2.10
2023-05-03T04:46:41.458Z,1.98
2023-05-03T04:52:43.271Z,2.13
2023-05-03T04:58:45.078Z,1.55
2023-05-03T05:04:46.848Z,1.55
2023-05-03T05:10:48.726Z,1.30
2023-05-03T05:16:50.646Z,1.73
2023-05-03T05:22:52.704Z,1.85
2023-05-03T05:28:54.666Z,1.40
2023-05-03T05:34:56.457Z,1.67
2023-05-03T05:40:59.459Z,2.17
2023-05-03T05:47:01.381Z,2.22
2023-05-03T05:53:03.266Z,2.60
2023-05-03T05:59:06.129Z,2.40
2023-05-03T06:05:08.414Z,2.42
2023-05-03T06:11:14.082Z,2.80
2023-05-03T06:17:16.794Z,3.00
2023-05-03T06:23:19.000Z,2.72
2023-05-03T06:29:20.858Z,2.15
2023-05-03T06:35:22.728Z,2.13
2023-05-03T06:41:24.795Z,2.10
2023-05-03T06:47:26.565Z,2.55
2023-05-03T06:53:29.002Z,2.25
2023-05-03T06:59:30.815Z,1.70
2023-05-03T07:05:32.840Z,1.73
2023-05-03T07:11:37.218Z,1.90
2023-05-03T07:17:39.066Z,1.27
2023-05-03T07:23:41.271Z,1.88
2023-05-03T07:29:43.104Z,1.50
2023-05-03T07:35:49.057Z,1.77
2023-05-03T07:41:51.222Z,1.90
2023-05-03T07:47:53.325Z,1.50
2023-05-03T07:53:58.423Z,1.88
2023-05-03T08:00:00.430Z,1.75
2023-05-03T08:06:02.470Z,2.30
2023-05-03T08:12:04.652Z,2.08
2023-05-03T08:18:06.519Z,1.38
2023-05-03T08:24:08.941Z,1.60
2023-05-03T08:30:11.914Z,1.35
2023-05-03T08:36:13.704Z,1.80
2023-05-03T08:42:15.674Z,2.55
2023-05-03T08:48:17.809Z,1.70
2023-05-03T08:54:21.362Z,1.60
2023-05-03T09:00:29.058Z,1.70
2023-05-03T09:06:33.182Z,1.42
2023-05-03T09:12:36.214Z,1.75
2023-05-03T09:18:37.997Z,1.63
2023-05-03T09:24:39.792Z,2.35
2023-05-03T09:30:42.398Z,1.67
2023-05-03T09:36:47.726Z,1.55
2023-05-03T09:43:08.960Z,1.60
2023-05-03T09:49:10.763Z,1.60
2023-05-03T09:55:12.616Z,1.50
2023-05-03T10:01:15.080Z,1.92
2023-05-03T10:07:18.718Z,1.65
2023-05-03T10:13:24.336Z,1.70
2023-05-03T10:19:34.890Z,1.92
2023-05-03T10:25:39.068Z,1.85
2023-05-03T10:37:50.634Z,1.58
2023-05-03T10:43:52.809Z,1.45
2023-05-03T10:50:16.133Z,1.90
2023-05-03T10:56:18.166Z,2.40
2023-05-03T11:02:30.260Z,2.33
2023-05-03T11:08:37.531Z,1.90
2023-05-03T11:14:40.185Z,1.85
2023-05-03T11:20:42.359Z,1.73
2023-05-03T11:26:44.160Z,1.80
2023-05-03T11:32:46.241Z,1.80
2023-05-03T11:38:48.165Z,2.05
2023-05-03T11:44:50.066Z,1.70
2023-05-03T11:50:56.942Z,2.55
2023-05-03T11:56:59.713Z,2.25
2023-05-03T12:03:02.369Z,1.85
2023-05-03T12:09:13.405Z,1.95
2023-05-03T12:15:16.545Z,1.95
2023-05-03T12:27:28.028Z,2.20
2023-05-03T12:33:33.651Z,2.17
2023-05-03T12:39:39.580Z,2.10
2023-05-03T12:45:46.550Z,1.92
2023-05-03T13:04:45.251Z,2.20
2023-05-03T13:10:29.730Z,2.42
2023-05-03T13:16:32.504Z,2.20
2023-05-03T13:22:34.539Z,2.03
2023-05-03T13:28:36.441Z,2.25
2023-05-03T13:34:38.364Z,2.28
2023-05-03T13:40:40.278Z,1.95
2023-05-03T13:46:43.628Z,2.08
2023-05-03T13:52:46.086Z,2.73
2023-05-03T13:58:47.916Z,2.13
2023-05-03T14:04:50.075Z,1.58
2023-05-03T14:10:51.998Z,1.70
2023-05-03T14:16:54.373Z,2.10
2023-05-03T14:22:56.466Z,2.05
2023-05-03T14:28:59.445Z,2.25
2023-05-03T14:35:02.138Z,1.95
2023-05-03T14:41:04.226Z,2.00
2023-05-03T14:47:07.244Z,2.28
2023-05-03T14:53:09.451Z,1.87
2023-05-03T14:59:11.294Z,1.67
2023-05-03T15:05:13.578Z,2.15
2023-05-03T15:11:16.064Z,1.90
2023-05-03T15:17:17.830Z,2.15
2023-05-03T15:23:19.585Z,1.92
2023-05-03T15:29:21.676Z,1.73
2023-05-03T15:35:23.513Z,2.72
2023-05-03T15:41:26.030Z,1.77
2023-05-03T15:47:27.875Z,2.13
2023-05-03T15:53:30.763Z,1.92
2023-05-03T15:59:32.590Z,2.20
2023-05-03T16:05:35.619Z,2.20
2023-05-03T16:11:37.485Z,1.88
2023-05-03T16:17:39.576Z,2.10
2023-05-03T16:23:41.336Z,2.08
2023-05-03T16:29:43.110Z,1.98
2023-05-03T16:35:44.865Z,2.17
2023-05-03T16:41:46.958Z,2.92
2023-05-03T16:47:48.842Z,1.95
2023-05-03T16:53:52.125Z,1.55
2023-05-03T16:59:53.959Z,2.07
2023-05-03T17:05:55.930Z,1.92
2023-05-03T17:11:59.049Z,1.83
2023-05-03T17:18:02.974Z,1.70
2023-05-03T17:24:06.574Z,1.70
2023-05-03T17:30:09.661Z,1.70
2023-05-03T17:36:11.488Z,1.45
2023-05-03T17:42:13.271Z,1.95
2023-05-03T17:48:15.143Z,1.65
2023-05-03T17:54:16.967Z,1.23
2023-05-03T18:00:21.238Z,1.70
2023-05-03T18:06:23.157Z,1.70
2023-05-03T18:12:25.744Z,1.55
2023-05-03T18:18:27.543Z,1.40
2023-05-03T18:24:29.314Z,1.60
2023-05-03T18:30:32.541Z,1.50
2023-05-03T18:36:34.323Z,1.70
2023-05-03T18:42:36.713Z,1.88
2023-05-03T18:48:38.411Z,1.50
2023-05-03T18:54:40.227Z,1.60
2023-05-03T19:00:43.390Z,1.73
2023-05-03T19:06:45.584Z,1.85
2023-05-03T19:12:47.480Z,1.48
2023-05-03T19:18:49.320Z,1.60
2023-05-03T19:24:51.105Z,1.80
2023-05-03T19:30:55.029Z,1.92
2023-05-03T19:36:56.766Z,3.53
2023-05-03T19:42:58.927Z,3.42
2023-05-03T19:49:01.547Z,3.20
2023-05-03T19:55:07.146Z,2.58
2023-05-03T20:01:09.092Z,3.05
2023-05-03T20:07:10.967Z,2.80
2023-05-03T20:13:13.598Z,2.70
2023-05-03T20:19:15.853Z,1.98
2023-05-03T20:25:18.293Z,2.58
2023-05-03T20:31:20.221Z,1.92
2023-05-03T20:37:21.973Z,1.90
2023-05-03T20:43:23.780Z,1.73
2023-05-03T20:49:25.566Z,2.30
2023-05-03T20:55:27.362Z,3.15
2023-05-03T21:01:30.791Z,2.45
2023-05-03T21:07:32.595Z,2.78
2023-05-03T21:13:35.945Z,2.50
2023-05-03T21:19:39.427Z,2.72
2023-05-03T21:25:41.202Z,2.72
2023-05-03T21:31:43.228Z,2.60
2023-05-03T21:37:46.577Z,2.92
2023-05-03T21:43:49.653Z,2.92
2023-05-03T21:49:51.615Z,2.38
2023-05-03T21:55:53.425Z,2.85
2023-05-03T22:01:55.252Z,2.85
2023-05-03T22:07:57.083Z,2.40
2023-05-03T22:14:07.478Z,2.40
2023-05-03T22:20:11.335Z,2.45
2023-05-03T22:26:13.126Z,2.42
2023-05-03T22:32:14.921Z,2.45
2023-05-03T22:38:16.721Z,2.40
2023-05-03T22:44:18.465Z,2.20
2023-05-03T22:50:20.298Z,2.30
2023-05-03T22:56:22.159Z,2.55
2023-05-03T23:02:23.986Z,2.40
2023-05-03T23:08:25.848Z,2.47
2023-05-03T23:14:27.593Z,2.40
2023-05-03T23:20:29.554Z,2.45
2023-05-03T23:26:31.312Z,2.50
2023-05-03T23:32:33.513Z,3.15
2023-05-03T23:38:35.794Z,2.38
2023-05-03T23:44:53.040Z,2.92
2023-05-03T23:50:56.124Z,2.60
2023-05-03T23:56:58.032Z,2.63
